createdAt,value
2023-06-26T00:01:41.272Z,7.25
2023-06-26T00:04:08.722Z,7.57
2023-06-26T00:06:37.145Z,7.47
2023-06-26T00:09:04.161Z,7.78
2023-06-26T00:11:34.220Z,7.85
2023-06-26T00:14:02.462Z,7.47
2023-06-26T00:16:29.517Z,8.02
2023-06-26T00:18:56.477Z,8.10
2023-06-26T00:21:23.378Z,8.07
2023-06-26T00:23:50.248Z,8.20
2023-06-26T00:26:17.209Z,7.88
2023-06-26T00:28:44.204Z,7.50
2023-06-26T00:31:11.178Z,8.05
2023-06-26T00:33:38.034Z,7.22
2023-06-26T00:36:05.393Z,7.88
2023-06-26T00:38:32.592Z,7.22
2023-06-26T00:40:59.579Z,7.72
2023-06-26T00:43:26.461Z,7.57
2023-06-26T00:45:53.566Z,7.55
2023-06-26T00:48:20.556Z,7.97
2023-06-26T00:50:47.586Z,7.85
2023-06-26T00:53:14.609Z,8.20
2023-06-26T00:55:41.626Z,7.53
2023-06-26T00:58:08.712Z,7.70
2023-06-26T01:00:35.774Z,8.18
2023-06-26T01:03:03.002Z,7.40
2023-06-26T01:05:30.924Z,8.30
2023-06-26T01:08:00.057Z,8.18
2023-06-26T01:10:30.247Z,7.68
2023-06-26T01:12:58.754Z,8.52
2023-06-26T01:15:25.834Z,7.88
2023-06-26T01:17:53.596Z,7.82
2023-06-26T01:20:21.763Z,8.05
2023-06-26T01:23:10.108Z,8.07
2023-06-26T01:26:08.760Z,8.27
2023-06-26T01:28:40.017Z,7.63
2023-06-26T01:31:09.300Z,8.80
2023-06-26T01:33:37.412Z,7.95
2023-06-26T01:36:05.436Z,8.05
2023-06-26T01:38:32.335Z,8.32
2023-06-26T01:41:04.861Z,8.50
2023-06-26T01:43:55.979Z,8.15
2023-06-26T01:47:03.432Z,8.48
2023-06-26T01:49:52.035Z,8.18
2023-06-26T01:52:42.987Z,7.78
2023-06-26T01:55:28.199Z,8.20
2023-06-26T01:57:59.366Z,8.07
2023-06-26T02:00:27.877Z,7.93
2023-06-26T02:02:54.826Z,8.15
2023-06-26T02:05:22.000Z,7.82
2023-06-26T02:07:48.890Z,8.27
2023-06-26T02:10:16.040Z,7.90
2023-06-26T02:12:42.888Z,8.50
2023-06-26T02:15:10.290Z,7.47
2023-06-26T02:17:37.329Z,7.97
2023-06-26T02:20:04.811Z,8.18
2023-06-26T02:22:31.694Z,8.20
2023-06-26T02:24:58.642Z,8.35
2023-06-26T02:27:25.533Z,8.63
2023-06-26T02:29:52.939Z,8.38
2023-06-26T02:32:19.962Z,8.35
2023-06-26T02:34:46.856Z,7.93
2023-06-26T02:37:14.041Z,8.90
2023-06-26T02:39:40.950Z,7.55
2023-06-26T02:42:07.865Z,8.63
2023-06-26T02:44:34.742Z,8.25
2023-06-26T02:47:01.673Z,8.00
2023-06-26T02:49:28.641Z,8.95
2023-06-26T02:51:56.026Z,8.20
2023-06-26T02:54:22.986Z,8.10
2023-06-26T02:56:50.012Z,8.40
2023-06-26T02:59:16.971Z,8.50
2023-06-26T03:01:43.888Z,8.05
2023-06-26T03:04:11.692Z,8.05
2023-06-26T03:06:38.761Z,7.93
2023-06-26T03:09:05.758Z,7.28
2023-06-26T03:11:32.677Z,7.80
2023-06-26T03:13:59.587Z,8.73
2023-06-26T03:16:26.509Z,8.00
2023-06-26T03:18:53.416Z,8.75
2023-06-26T03:21:20.476Z,9.02
2023-06-26T03:23:47.473Z,8.27
2023-06-26T03:26:15.826Z,8.38
2023-06-26T03:28:45.557Z,8.40
2023-06-26T03:31:12.453Z,8.55
2023-06-26T03:33:39.773Z,8.00
2023-06-26T03:36:07.242Z,7.88
2023-06-26T03:38:34.167Z,7.60
2023-06-26T03:41:01.320Z,8.52
2023-06-26T03:43:28.210Z,7.93
2023-06-26T03:45:55.397Z,7.57
2023-06-26T03:48:22.360Z,7.78
2023-06-26T03:50:49.595Z,7.68
2023-06-26T03:53:16.583Z,7.93
2023-06-26T03:55:43.460Z,8.25
2023-06-26T03:58:10.471Z,7.63
2023-06-26T04:00:37.348Z,8.25
2023-06-26T04:03:05.284Z,8.40
2023-06-26T04:05:32.220Z,8.05
2023-06-26T04:07:59.117Z,8.35
2023-06-26T04:10:26.001Z,9.07
2023-06-26T04:12:53.024Z,8.93
2023-06-26T04:15:20.066Z,9.02
2023-06-26T04:17:46.979Z,8.70
2023-06-26T04:20:14.160Z,8.70
2023-06-26T04:22:41.124Z,8.38
2023-06-26T04:25:08.364Z,8.98
2023-06-26T04:27:36.757Z,8.68
2023-06-26T04:30:06.006Z,9.10
2023-06-26T04:32:33.026Z,9.45
2023-06-26T04:34:59.956Z,8.95
2023-06-26T04:37:27.570Z,9.05
2023-06-26T04:39:54.449Z,8.27
2023-06-26T04:42:22.882Z,8.70
2023-06-26T04:44:49.916Z,8.80
2023-06-26T04:47:17.110Z,9.23
2023-06-26T04:49:47.240Z,9.10
2023-06-26T04:52:15.126Z,8.90
2023-06-26T04:54:42.066Z,8.43
2023-06-26T04:57:10.148Z,8.82
2023-06-26T04:59:37.184Z,8.45
2023-06-26T05:02:06.091Z,8.88
2023-06-26T05:04:33.260Z,9.50
2023-06-26T05:07:00.569Z,8.90
2023-06-26T05:09:27.908Z,8.48
2023-06-26T05:11:54.851Z,8.48
2023-06-26T05:14:23.631Z,7.85
2023-06-26T05:16:52.260Z,7.78
2023-06-26T05:19:19.246Z,7.20
2023-06-26T05:21:47.307Z,7.70
2023-06-26T05:24:16.846Z,7.47
2023-06-26T05:26:44.179Z,7.60
2023-06-26T05:29:11.377Z,6.82
2023-06-26T05:31:42.992Z,6.32
2023-06-26T05:34:12.174Z,6.53
2023-06-26T05:36:40.459Z,6.00
2023-06-26T05:39:08.086Z,6.28
2023-06-26T05:41:35.341Z,6.38
2023-06-26T05:44:02.228Z,6.47
2023-06-26T05:46:29.188Z,7.32
2023-06-26T05:48:56.315Z,6.60
2023-06-26T05:51:23.522Z,6.47
2023-06-26T05:53:51.335Z,6.63
2023-06-26T05:56:19.749Z,6.68
2023-06-26T05:58:47.771Z,7.47
2023-06-26T06:01:15.052Z,7.20
2023-06-26T06:03:42.221Z,7.18
2023-06-26T06:06:09.274Z,6.95
2023-06-26T06:08:36.302Z,7.18
2023-06-26T06:11:03.304Z,7.10
2023-06-26T06:13:30.490Z,7.07
2023-06-26T06:15:57.499Z,6.70
2023-06-26T06:18:24.496Z,7.03
2023-06-26T06:20:51.499Z,6.70
2023-06-26T06:23:18.396Z,6.35
2023-06-26T06:25:45.355Z,7.60
2023-06-26T06:28:12.313Z,6.90
2023-06-26T06:30:45.675Z,7.30
2023-06-26T06:33:13.515Z,7.07
2023-06-26T06:35:40.600Z,6.97
2023-06-26T06:38:07.499Z,7.15
2023-06-26T06:40:34.424Z,6.65
2023-06-26T06:43:01.402Z,6.60
2023-06-26T06:45:28.362Z,6.47
2023-06-26T06:47:55.254Z,6.80
2023-06-26T06:50:22.406Z,6.65
2023-06-26T06:52:49.488Z,6.35
2023-06-26T06:55:16.371Z,7.18
2023-06-26T06:57:43.292Z,6.95
2023-06-26T07:00:14.916Z,7.10
2023-06-26T07:02:46.258Z,6.88
2023-06-26T07:05:14.155Z,6.45
2023-06-26T07:07:41.516Z,6.75
2023-06-26T07:10:14.841Z,7.35
2023-06-26T07:12:41.798Z,6.78
2023-06-26T07:15:09.339Z,7.15
2023-06-26T07:17:36.713Z,6.95
2023-06-26T07:20:09.549Z,7.30
2023-06-26T07:22:37.750Z,6.82
2023-06-26T07:25:05.994Z,6.90
2023-06-26T07:27:34.644Z,7.05
2023-06-26T07:30:01.911Z,6.75
2023-06-26T07:32:28.909Z,6.35
2023-06-26T07:34:55.810Z,6.47
2023-06-26T07:37:23.022Z,6.18
2023-06-26T07:39:51.206Z,6.30
2023-06-26T07:42:18.224Z,6.53
2023-06-26T07:44:45.355Z,6.10
2023-06-26T07:47:12.599Z,6.00
2023-06-26T07:49:40.749Z,5.88
2023-06-26T07:52:08.284Z,6.80
2023-06-26T07:54:35.203Z,6.15
2023-06-26T07:57:11.709Z,5.60
2023-06-26T07:59:38.663Z,5.68
2023-06-26T08:02:06.607Z,6.40
2023-06-26T08:04:34.808Z,5.82
2023-06-26T08:07:04.975Z,6.18
2023-06-26T08:09:32.628Z,6.18
2023-06-26T08:12:00.579Z,5.53
2023-06-26T08:14:27.711Z,5.75
2023-06-26T08:16:55.003Z,6.47
2023-06-26T08:19:21.903Z,6.07
2023-06-26T08:21:49.019Z,6.10
2023-06-26T08:24:20.000Z,6.18
2023-06-26T08:26:48.385Z,5.40
2023-06-26T08:29:16.171Z,6.45
2023-06-26T08:31:44.894Z,7.13
2023-06-26T08:34:12.042Z,7.30
2023-06-26T08:36:39.632Z,7.47
2023-06-26T08:39:07.029Z,8.05
2023-06-26T08:41:34.040Z,8.18
2023-06-26T08:44:01.938Z,7.80
2023-06-26T08:46:30.270Z,7.43
2023-06-26T08:49:10.592Z,7.90
2023-06-26T08:51:44.771Z,8.15
2023-06-26T08:54:18.322Z,7.78
2023-06-26T08:56:50.385Z,6.50
2023-06-26T08:59:17.972Z,6.53
2023-06-26T09:01:46.683Z,6.78
2023-06-26T09:04:13.964Z,6.90
2023-06-26T09:06:41.001Z,7.65
2023-06-26T09:09:08.782Z,7.50
2023-06-26T09:11:38.704Z,8.35
2023-06-26T09:14:08.241Z,8.10
2023-06-26T09:16:43.128Z,8.80
2023-06-26T09:19:13.966Z,8.43
2023-06-26T09:21:42.646Z,8.20
2023-06-26T09:24:11.215Z,8.00
2023-06-26T09:26:42.051Z,9.07
2023-06-26T09:29:14.694Z,7.90
2023-06-26T09:31:43.087Z,7.68
2023-06-26T09:34:10.625Z,6.82
2023-06-26T09:36:40.050Z,6.22
2023-06-26T09:39:13.058Z,6.63
2023-06-26T09:41:44.050Z,6.82
2023-06-26T09:44:15.170Z,5.97
2023-06-26T09:46:47.336Z,6.00
2023-06-26T09:49:14.441Z,6.07
2023-06-26T09:51:43.584Z,5.63
2023-06-26T09:54:11.637Z,6.35
2023-06-26T09:56:38.846Z,7.18
2023-06-26T09:59:08.226Z,6.15
2023-06-26T10:01:46.092Z,5.72
2023-06-26T10:04:13.607Z,6.13
2023-06-26T10:06:48.392Z,6.68
2023-06-26T10:09:19.223Z,6.43
2023-06-26T10:12:12.179Z,5.90
2023-06-26T10:14:44.189Z,6.00
2023-06-26T10:17:19.512Z,5.35
2023-06-26T10:19:48.491Z,5.35
2023-06-26T10:22:22.789Z,4.78
2023-06-26T10:24:52.006Z,4.90
2023-06-26T10:27:22.039Z,4.75
2023-06-26T10:30:01.386Z,5.28
2023-06-26T10:32:30.202Z,5.30
2023-06-26T10:34:58.595Z,5.55
2023-06-26T10:37:47.126Z,5.55
2023-06-26T10:40:21.748Z,5.78
2023-06-26T10:42:48.775Z,5.55
2023-06-26T10:45:22.219Z,5.90
2023-06-26T10:47:53.606Z,5.35
2023-06-26T10:50:31.894Z,4.60
2023-06-26T10:53:27.804Z,4.28
2023-06-26T10:56:03.762Z,4.05
2023-06-26T10:58:41.080Z,4.40
2023-06-26T11:01:25.351Z,4.38
2023-06-26T11:04:08.680Z,4.45
2023-06-26T11:06:41.409Z,4.88
2023-06-26T11:09:16.339Z,4.20
2023-06-26T11:11:55.178Z,4.80
2023-06-26T11:14:24.492Z,3.50
2023-06-26T11:16:52.324Z,4.55
2023-06-26T11:19:20.693Z,4.15
2023-06-26T11:21:48.461Z,4.30
2023-06-26T11:24:15.634Z,3.63
2023-06-26T11:26:47.621Z,3.60
2023-06-26T11:29:14.632Z,3.55
2023-06-26T11:31:43.348Z,3.35
2023-06-26T11:34:14.218Z,4.18
2023-06-26T11:36:44.104Z,3.58
2023-06-26T11:39:11.342Z,4.03
2023-06-26T11:41:40.624Z,4.00
2023-06-26T11:44:15.300Z,3.63
2023-06-26T11:46:42.863Z,3.75
2023-06-26T11:49:14.269Z,3.20
2023-06-26T11:51:41.907Z,3.15
2023-06-26T11:54:08.945Z,3.10
2023-06-26T11:56:35.963Z,3.20
2023-06-26T11:59:14.005Z,3.00
2023-06-26T12:01:42.243Z,3.70
2023-06-26T12:04:12.984Z,3.40
2023-06-26T12:06:47.856Z,3.58
2023-06-26T12:09:15.535Z,2.83
2023-06-26T12:11:45.743Z,2.80
2023-06-26T12:14:13.670Z,2.55
2023-06-26T12:16:43.389Z,2.30
2023-06-26T12:19:10.580Z,2.47
2023-06-26T12:21:45.216Z,2.60
2023-06-26T12:24:18.627Z,3.10
2023-06-26T12:26:48.778Z,2.75
2023-06-26T12:29:18.519Z,2.78
2023-06-26T12:31:50.510Z,2.97
2023-06-26T12:34:26.653Z,2.40
2023-06-26T12:36:53.773Z,2.75
2023-06-26T12:39:22.297Z,2.50
2023-06-26T12:42:09.550Z,2.42
2023-06-26T12:44:37.957Z,3.00
2023-06-26T12:47:05.235Z,2.67
2023-06-26T12:49:34.601Z,2.80
2023-06-26T12:52:04.207Z,2.85
2023-06-26T12:54:31.379Z,2.88
2023-06-26T12:56:58.977Z,2.95
2023-06-26T12:59:26.060Z,2.80
2023-06-26T13:01:53.370Z,2.78
2023-06-26T13:04:20.646Z,2.53
2023-06-26T13:06:47.666Z,2.38
2023-06-26T13:09:14.740Z,2.63
2023-06-26T13:11:43.979Z,2.67
2023-06-26T13:14:12.018Z,2.70
2023-06-26T13:16:41.521Z,2.78
2023-06-26T13:19:08.897Z,2.30
2023-06-26T13:21:36.368Z,2.80
2023-06-26T13:24:05.043Z,2.40
2023-06-26T13:29:03.610Z,2.42
2023-06-26T13:31:30.605Z,2.60
2023-06-26T13:34:00.064Z,2.10
2023-06-26T13:36:28.173Z,2.67
2023-06-26T13:38:57.906Z,2.30
2023-06-26T13:41:26.388Z,2.78
2023-06-26T13:43:55.595Z,1.77
2023-06-26T13:46:28.966Z,2.10
2023-06-26T13:48:55.984Z,2.28
2023-06-26T13:51:22.915Z,2.05
2023-06-26T13:53:49.869Z,1.83
2023-06-26T13:56:16.865Z,1.90
2023-06-26T13:58:43.943Z,1.63
2023-06-26T14:01:10.921Z,2.05
2023-06-26T14:03:38.106Z,1.70
2023-06-26T14:06:05.287Z,1.77
2023-06-26T14:08:32.392Z,1.95
2023-06-26T14:10:59.680Z,1.83
2023-06-26T14:13:26.592Z,1.70
2023-06-26T14:15:54.047Z,1.50
2023-06-26T14:18:24.669Z,1.38
2023-06-26T14:20:51.779Z,1.88
2023-06-26T14:23:18.817Z,1.90
2023-06-26T14:25:48.446Z,2.10
2023-06-26T14:28:16.532Z,1.35
2023-06-26T14:30:43.905Z,1.80
2023-06-26T14:33:11.093Z,1.50
2023-06-26T14:35:38.031Z,1.63
2023-06-26T14:38:04.951Z,1.58
2023-06-26T14:40:32.169Z,1.48
2023-06-26T14:42:59.754Z,1.25
2023-06-26T14:45:27.306Z,1.40
2023-06-26T14:47:54.707Z,1.33
2023-06-26T14:50:22.196Z,1.42
2023-06-26T14:52:49.374Z,1.40
2023-06-26T14:55:16.484Z,1.50
2023-06-26T14:57:43.484Z,1.38
2023-06-26T15:00:11.218Z,1.40
2023-06-26T15:02:38.462Z,1.20
2023-06-26T15:05:05.952Z,1.35
2023-06-26T15:07:32.915Z,1.20
2023-06-26T15:10:00.600Z,1.30
2023-06-26T15:12:28.541Z,1.13
2023-06-26T15:14:56.086Z,1.23
2023-06-26T15:17:22.963Z,1.10
2023-06-26T15:19:49.922Z,1.30
2023-06-26T15:22:19.809Z,1.20
2023-06-26T15:24:46.913Z,1.17
2023-06-26T15:27:14.507Z,1.30
2023-06-26T15:29:41.850Z,1.48
2023-06-26T15:32:09.447Z,1.10
2023-06-26T15:34:36.443Z,1.15
2023-06-26T15:37:03.665Z,0.95
2023-06-26T15:39:30.636Z,1.27
2023-06-26T15:41:57.677Z,1.02
2023-06-26T15:44:24.780Z,1.17
2023-06-26T15:46:52.092Z,1.02
2023-06-26T15:49:19.006Z,1.02
2023-06-26T15:51:46.491Z,1.40
2023-06-26T15:54:13.575Z,1.30
2023-06-26T15:56:41.098Z,1.10
2023-06-26T15:59:08.209Z,1.13
2023-06-26T16:01:36.018Z,1.30
2023-06-26T16:04:03.078Z,1.00
2023-06-26T16:06:30.064Z,1.00
2023-06-26T16:08:57.778Z,1.20
2023-06-26T16:11:24.712Z,0.90
2023-06-26T16:13:53.054Z,1.30
2023-06-26T16:16:20.004Z,1.00
2023-06-26T16:18:47.186Z,1.05
2023-06-26T16:21:14.524Z,1.23
2023-06-26T16:23:41.537Z,1.15
2023-06-26T16:26:08.488Z,0.90
2023-06-26T16:28:35.387Z,1.20
2023-06-26T16:31:02.376Z,0.95
2023-06-26T16:33:29.442Z,1.20
2023-06-26T16:35:56.440Z,1.02
2023-06-26T16:38:23.498Z,1.20
2023-06-26T16:40:50.441Z,1.23
2023-06-26T16:43:18.478Z,1.10
2023-06-26T16:45:45.518Z,1.13
2023-06-26T16:48:12.447Z,1.00
2023-06-26T16:50:39.716Z,1.33
2023-06-26T16:53:06.802Z,1.23
2023-06-26T16:55:33.978Z,1.15
2023-06-26T16:58:00.961Z,1.15
2023-06-26T17:00:27.917Z,1.50
2023-06-26T17:02:55.199Z,1.58
2023-06-26T17:05:22.199Z,1.40
2023-06-26T17:07:49.162Z,1.10
2023-06-26T17:10:16.150Z,1.20
2023-06-26T17:12:43.745Z,1.40
2023-06-26T17:15:11.190Z,1.50
2023-06-26T17:17:38.273Z,1.10
2023-06-26T17:20:10.346Z,1.30
2023-06-26T17:22:38.248Z,0.90
2023-06-26T17:25:06.110Z,1.33
2023-06-26T17:27:34.946Z,1.10
2023-06-26T17:30:02.282Z,1.10
2023-06-26T17:32:29.277Z,1.52
2023-06-26T17:34:57.599Z,2.17
2023-06-26T17:37:24.624Z,2.38
2023-06-26T17:39:52.798Z,1.30
2023-06-26T17:42:19.907Z,1.30
2023-06-26T17:44:47.007Z,1.40
2023-06-26T17:47:14.058Z,1.27
2023-06-26T17:49:41.521Z,1.33
2023-06-26T17:52:09.153Z,1.20
2023-06-26T17:54:36.263Z,1.35
2023-06-26T17:57:03.819Z,1.30
2023-06-26T17:59:30.846Z,1.30
2023-06-26T18:01:59.880Z,2.10
2023-06-26T18:04:27.308Z,1.40
2023-06-26T18:06:54.573Z,1.25
2023-06-26T18:09:21.675Z,1.25
2023-06-26T18:11:48.750Z,1.20
2023-06-26T18:14:16.059Z,1.48
2023-06-26T18:16:42.973Z,1.50
2023-06-26T18:19:09.972Z,1.35
2023-06-26T18:21:37.040Z,1.50
2023-06-26T18:24:04.545Z,1.20
2023-06-26T18:26:31.810Z,1.20
2023-06-26T18:28:58.787Z,1.33
2023-06-26T18:31:25.990Z,1.45
2023-06-26T18:33:54.212Z,1.10
2023-06-26T18:36:21.441Z,1.08
2023-06-26T18:38:48.418Z,1.17
2023-06-26T18:41:15.775Z,1.17
2023-06-26T18:43:48.597Z,1.00
2023-06-26T18:46:16.413Z,1.20
2023-06-26T18:48:43.590Z,1.17
2023-06-26T18:51:11.010Z,1.20
2023-06-26T18:53:40.672Z,1.00
2023-06-26T18:56:08.591Z,1.00
2023-06-26T18:58:37.706Z,1.10
2023-06-26T19:01:05.719Z,1.10
2023-06-26T19:03:32.786Z,1.00
2023-06-26T19:05:59.899Z,1.20
2023-06-26T19:08:27.153Z,1.10
2023-06-26T19:10:54.006Z,1.00
2023-06-26T19:13:21.026Z,1.05
2023-06-26T19:15:48.232Z,1.30
2023-06-26T19:18:15.246Z,1.27
2023-06-26T19:20:42.401Z,1.10
2023-06-26T19:23:09.282Z,1.30
2023-06-26T19:25:36.234Z,1.15
2023-06-26T19:28:03.299Z,1.10
2023-06-26T19:30:30.494Z,0.90
2023-06-26T19:32:57.706Z,1.02
2023-06-26T19:35:24.847Z,1.23
2023-06-26T19:38:03.212Z,1.13
2023-06-26T19:40:36.696Z,1.15
2023-06-26T19:43:04.962Z,1.10
2023-06-26T19:45:32.736Z,1.20
2023-06-26T19:48:00.021Z,1.13
2023-06-26T19:50:27.115Z,1.27
2023-06-26T19:52:54.545Z,1.30
2023-06-26T19:55:21.628Z,1.30
2023-06-26T19:57:49.583Z,1.35
2023-06-26T20:00:17.623Z,1.10
2023-06-26T20:02:44.891Z,1.65
2023-06-26T20:05:12.365Z,1.65
2023-06-26T20:07:42.415Z,1.10
2023-06-26T20:10:09.567Z,1.58
2023-06-26T20:12:36.797Z,1.40
2023-06-26T20:15:04.477Z,1.48
2023-06-26T20:17:32.441Z,1.15
2023-06-26T20:19:59.392Z,1.65
2023-06-26T20:22:26.341Z,1.38
2023-06-26T20:24:53.275Z,1.27
2023-06-26T20:27:21.683Z,1.52
2023-06-26T20:29:48.648Z,1.30
2023-06-26T20:32:15.663Z,2.28
2023-06-26T20:34:43.210Z,1.30
2023-06-26T20:37:10.266Z,1.50
2023-06-26T20:39:37.656Z,1.08
2023-06-26T20:42:05.425Z,1.50
2023-06-26T20:44:32.821Z,1.50
2023-06-26T20:47:09.760Z,1.35
2023-06-26T20:49:38.740Z,1.27
2023-06-26T20:52:11.988Z,1.55
2023-06-26T20:54:40.553Z,1.25
2023-06-26T20:57:10.387Z,1.60
2023-06-26T20:59:41.539Z,1.38
2023-06-26T21:02:08.640Z,1.20
2023-06-26T21:04:38.684Z,1.67
2023-06-26T21:07:07.689Z,1.30
2023-06-26T21:09:35.264Z,1.45
2023-06-26T21:12:02.861Z,1.48
2023-06-26T21:14:29.994Z,1.48
2023-06-26T21:16:57.035Z,2.15
2023-06-26T21:19:24.106Z,1.40
2023-06-26T21:21:51.265Z,1.42
2023-06-26T21:24:18.230Z,1.65
2023-06-26T21:26:45.220Z,1.58
2023-06-26T21:29:12.093Z,1.30
2023-06-26T21:31:38.989Z,1.70
2023-06-26T21:34:06.937Z,2.10
2023-06-26T21:36:33.889Z,1.50
2023-06-26T21:39:00.899Z,1.67
2023-06-26T21:41:28.135Z,1.42
2023-06-26T21:43:55.041Z,1.80
2023-06-26T21:46:22.032Z,1.55
2023-06-26T21:48:48.994Z,1.70
2023-06-26T21:51:15.874Z,1.60
2023-06-26T21:53:42.798Z,1.58
2023-06-26T21:56:09.784Z,1.67
2023-06-26T21:58:36.730Z,1.80
2023-06-26T22:01:03.683Z,1.83
2023-06-26T22:03:30.776Z,1.63
2023-06-26T22:05:57.709Z,1.83
2023-06-26T22:08:24.567Z,1.52
2023-06-26T22:10:51.480Z,2.00
2023-06-26T22:13:19.009Z,1.73
2023-06-26T22:15:45.895Z,1.92
2023-06-26T22:18:12.788Z,1.70
2023-06-26T22:20:40.520Z,1.60
2023-06-26T22:23:07.419Z,1.60
2023-06-26T22:25:34.503Z,1.85
2023-06-26T22:28:01.422Z,1.70
2023-06-26T22:30:28.405Z,1.67
2023-06-26T22:32:55.683Z,1.60
2023-06-26T22:35:22.605Z,1.55
2023-06-26T22:37:49.535Z,1.80
2023-06-26T22:40:17.111Z,2.20
2023-06-26T22:42:44.116Z,2.10
2023-06-26T22:45:12.781Z,1.50
2023-06-26T22:47:44.692Z,1.90
2023-06-26T22:50:11.782Z,2.10
2023-06-26T22:52:39.485Z,1.90
2023-06-26T22:55:06.918Z,1.98
2023-06-26T22:57:34.989Z,1.60
2023-06-26T23:00:01.899Z,1.63
2023-06-26T23:02:28.972Z,1.90
2023-06-26T23:04:55.985Z,1.70
2023-06-26T23:07:23.033Z,1.80
2023-06-26T23:09:50.238Z,1.80
2023-06-26T23:12:17.300Z,1.80
2023-06-26T23:14:44.523Z,1.98
2023-06-26T23:17:12.634Z,1.90
2023-06-26T23:19:41.659Z,1.70
2023-06-26T23:22:11.923Z,1.73
2023-06-26T23:24:41.594Z,2.00
2023-06-26T23:27:11.560Z,1.90
2023-06-26T23:29:39.860Z,1.70
2023-06-26T23:32:08.713Z,1.80
2023-06-26T23:34:39.750Z,1.73
2023-06-26T23:37:13.003Z,2.00
2023-06-26T23:39:43.250Z,1.70
2023-06-26T23:42:11.453Z,1.60
2023-06-26T23:44:38.956Z,1.90
2023-06-26T23:47:07.185Z,1.70
2023-06-26T23:49:36.551Z,1.73
2023-06-26T23:52:04.855Z,1.80
2023-06-26T23:54:32.487Z,1.95
2023-06-26T23:56:59.748Z,2.03
2023-06-26T23:59:26.840Z,2.00
